Time;durP1;ratioP1;P1;durP2;ratioP2;P2;SDS_P1;SDS_P2;PMS_P1;PMS_P2;Temp;Humidity;BMP_temperature;BMP_pressure;BME280_temperature;BME280_humidity;BME280_pressure;Samples;Min_cycle;Max_cycle;Signal;HPM_P1;HPM_P2
2021/11/05 00:00:52;;;;;;;5.60;3.10;;;;;;;7.26;73.62;99560.22;4974532;28;20133;-62
2021/11/05 00:03:25;;;;;;;5.93;3.25;;;;;;;7.22;73.89;99561.03;4974927;28;20046;-62
2021/11/05 00:05:57;;;;;;;4.95;3.05;;;;;;;7.31;74.13;99566.19;4974475;28;20061;-62
2021/11/05 00:08:27;;;;;;;7.90;3.40;;;;;;;7.33;73.38;99561.97;4974407;28;20141;-61
2021/11/05 00:10:59;;;;;;;6.57;3.28;;;;;;;7.15;73.36;99569.41;4974433;28;20047;-62
2021/11/05 00:13:32;;;;;;;7.07;3.22;;;;;;;7.06;73.16;99571.81;4974441;28;20051;-62
2021/11/05 00:16:05;;;;;;;5.15;2.70;;;;;;;7.03;73.45;99577.72;4974449;28;20050;-62
2021/11/05 00:18:35;;;;;;;5.68;3.35;;;;;;;6.89;73.60;99578.38;4974665;28;20137;-62
2021/11/05 00:21:07;;;;;;;6.03;3.08;;;;;;;6.81;73.81;99572.38;4974661;28;20126;-62
2021/11/05 00:23:37;;;;;;;5.60;3.10;;;;;;;6.77;74.08;99571.47;4974308;28;20400;-62
2021/11/05 00:26:09;;;;;;;5.40;2.83;;;;;;;6.80;73.93;99575.72;4974559;28;20457;-62
2021/11/05 00:28:40;;;;;;;4.65;2.35;;;;;;;6.73;74.36;99570.59;4976955;28;20061;-62
2021/11/05 00:31:10;;;;;;;5.32;3.03;;;;;;;6.59;73.94;99577.19;4977894;28;20050;-62
2021/11/05 00:33:39;;;;;;;5.50;3.17;;;;;;;6.68;74.28;99574.75;4977035;28;20138;-62
2021/11/05 00:36:14;;;;;;;5.40;3.00;;;;;;;6.67;74.11;99583.19;4977812;28;20051;-63
2021/11/05 00:38:44;;;;;;;6.00;3.03;;;;;;;6.37;74.76;99567.56;4977973;28;20055;-63
2021/11/05 00:41:17;;;;;;;7.43;3.15;;;;;;;6.47;75.12;99589.69;4977996;28;20101;-61
2021/11/05 00:43:48;;;;;;;5.97;3.00;;;;;;;6.56;75.03;99589.81;4977791;28;20050;-61
2021/11/05 00:46:20;;;;;;;4.75;2.80;;;;;;;6.56;74.82;99584.72;4977648;28;20134;-61
2021/11/05 00:48:49;;;;;;;5.50;2.63;;;;;;;6.38;74.41;99579.38;4977621;28;20055;-62
2021/11/05 00:51:21;;;;;;;4.78;2.70;;;;;;;6.34;74.85;99577.66;4977429;28;20043;-63
2021/11/05 00:53:54;;;;;;;5.20;2.88;;;;;;;6.43;75.31;99571.88;4978068;28;20479;-62
2021/11/05 00:56:23;;;;;;;5.50;3.08;;;;;;;6.50;75.39;99577.03;4977481;28;20054;-62
2021/11/05 00:58:57;;;;;;;6.68;3.63;;;;;;;6.31;75.09;99571.72;4977379;28;20126;-62
2021/11/05 01:01:29;;;;;;;6.18;3.38;;;;;;;6.38;75.55;99574.31;4977625;28;20073;-61
2021/11/05 01:03:59;;;;;;;6.68;3.65;;;;;;;6.43;75.51;99577.78;4977250;28;20079;-62
2021/11/05 01:06:31;;;;;;;7.22;3.53;;;;;;;6.24;74.75;99570.75;4977871;28;20042;-60
2021/11/05 01:09:05;;;;;;;5.97;3.95;;;;;;;6.22;75.06;99572.41;4978101;28;20051;-62
2021/11/05 01:11:37;;;;;;;8.00;3.75;;;;;;;6.16;75.37;99567.25;4977142;28;20046;-62
2021/11/05 01:14:11;;;;;;;8.45;4.57;;;;;;;6.26;75.40;99574.19;4977127;28;20046;-62
2021/11/05 01:16:43;;;;;;;7.25;3.78;;;;;;;6.24;75.46;99574.97;4977344;28;20405;-62
2021/11/05 01:19:16;;;;;;;7.25;4.10;;;;;;;6.19;75.22;99579.13;4977390;28;20055;-62
2021/11/05 01:21:48;;;;;;;8.52;4.38;;;;;;;6.32;75.57;99581.84;4977245;28;20077;-62
2021/11/05 01:24:20;;;;;;;6.10;3.35;;;;;;;6.32;75.14;99576.78;4976904;28;20130;-62
2021/11/05 01:26:53;;;;;;;6.40;3.70;;;;;;;6.13;74.67;99576.47;4977249;28;20055;-62
2021/11/05 01:29:28;;;;;;;6.63;3.70;;;;;;;5.98;75.44;99572.03;4976878;28;20055;-62
2021/11/05 01:31:57;;;;;;;8.07;3.80;;;;;;;6.00;75.33;99575.44;4975917;28;20055;-62
2021/11/05 01:34:26;;;;;;;;;;;;;;;5.94;75.31;99576.22;4977177;28;20066;-61
2021/11/05 01:36:59;;;;;;;7.18;3.65;;;;;;;5.91;75.42;99576.16;4976867;28;19922;-61
2021/11/05 01:39:31;;;;;;;5.93;3.70;;;;;;;5.88;75.24;99576.09;4975786;28;20105;-61
2021/11/05 01:42:04;;;;;;;7.45;3.80;;;;;;;5.96;75.24;99574.56;4976571;28;20133;-61
2021/11/05 01:44:38;;;;;;;7.32;3.88;;;;;;;6.01;75.68;99572.94;4976543;28;20055;-61
2021/11/05 01:47:13;;;;;;;6.15;3.55;;;;;;;6.11;75.42;99568.88;4976539;28;20043;-61
2021/11/05 01:49:43;;;;;;;5.68;3.28;;;;;;;5.89;75.73;99562.63;4976558;28;20058;-61
2021/11/05 01:52:12;;;;;;;6.70;3.38;;;;;;;5.78;74.87;99563.25;4976765;28;20031;-61
2021/11/05 01:54:45;;;;;;;4.90;2.92;;;;;;;5.68;75.03;99571.50;4976371;28;20068;-61
2021/11/05 01:57:18;;;;;;;6.15;3.28;;;;;;;5.66;75.43;99574.03;4976355;28;20054;-61
2021/11/05 01:59:53;;;;;;;5.85;3.30;;;;;;;5.68;75.41;99572.38;4976324;28;20097;-61
2021/11/05 02:02:23;;;;;;;4.78;2.65;;;;;;;5.73;75.37;99569.91;4976217;28;20057;-61
2021/11/05 02:04:52;;;;;;;6.13;3.08;;;;;;;5.48;75.25;99577.91;4976120;28;20047;-62
2021/11/05 02:07:29;;;;;;;6.90;2.65;;;;;;;5.53;75.18;99576.31;4976129;28;20129;-61
2021/11/05 02:10:04;;;;;;;4.93;2.90;;;;;;;5.53;75.60;99581.38;4976404;28;20043;-61
2021/11/05 02:12:34;;;;;;;5.45;3.40;;;;;;;5.52;75.91;99589.81;4976044;28;20057;-62
2021/11/05 02:15:09;;;;;;;6.53;2.97;;;;;;;5.60;75.71;99589.09;4976320;28;20065;-62
2021/11/05 02:17:39;;;;;;;6.07;3.15;;;;;;;5.43;75.58;99590.47;4975991;28;20215;-62
2021/11/05 02:20:16;;;;;;;5.10;3.22;;;;;;;5.40;75.64;99588.75;4975881;28;20133;-62
2021/11/05 02:22:50;;;;;;;5.55;3.17;;;;;;;5.51;76.03;99588.09;4976144;28;20042;-62
2021/11/05 02:25:23;;;;;;;5.68;2.85;;;;;;;5.43;75.37;99593.88;4975837;28;20129;-62
2021/11/05 02:27:57;;;;;;;4.97;3.15;;;;;;;5.25;75.57;99580.88;4975814;28;20074;-62
2021/11/05 02:30:29;;;;;;;5.45;2.85;;;;;;;5.23;76.01;99592.63;4975709;28;20137;-62
2021/11/05 02:33:01;;;;;;;5.18;3.20;;;;;;;5.15;75.64;99599.25;4975446;28;20062;-62
2021/11/05 02:35:31;;;;;;;5.63;3.28;;;;;;;5.27;76.59;99604.53;4975633;28;20137;-62
2021/11/05 02:38:01;;;;;;;5.05;2.97;;;;;;;5.26;76.09;99610.41;4975576;28;20074;-62
2021/11/05 02:40:34;;;;;;;5.30;2.88;;;;;;;5.30;76.69;99619.75;4975874;28;20066;-62
2021/11/05 02:43:07;;;;;;;6.63;2.92;;;;;;;5.22;76.16;99633.94;4975395;28;20046;-62
2021/11/05 02:45:47;;;;;;;6.53;2.63;;;;;;;5.13;76.57;99636.31;4975817;28;20153;-62
2021/11/05 02:48:19;;;;;;;4.53;2.78;;;;;;;5.23;75.95;99643.22;4975434;28;20054;-62
2021/11/05 02:50:52;;;;;;;5.18;2.80;;;;;;;5.20;76.27;99648.25;4975603;28;20528;-62
2021/11/05 02:53:25;;;;;;;5.13;2.58;;;;;;;5.22;75.74;99661.78;4975620;28;20134;-62
2021/11/05 02:55:58;;;;;;;4.35;2.47;;;;;;;5.11;75.50;99668.28;4975553;28;20477;-62
2021/11/05 02:58:31;;;;;;;6.97;3.15;;;;;;;5.09;76.02;99677.50;4975262;28;20109;-61
2021/11/05 03:01:04;;;;;;;4.80;2.63;;;;;;;5.11;75.07;99678.38;4975230;28;20054;-62
2021/11/05 03:03:36;;;;;;;3.97;2.35;;;;;;;5.12;75.81;99685.16;4975292;28;20467;-61
2021/11/05 03:06:08;;;;;;;4.38;2.42;;;;;;;5.09;75.54;99684.25;4975491;28;20054;-61
2021/11/05 03:08:39;;;;;;;6.03;2.50;;;;;;;4.97;75.20;99689.91;4975074;28;20053;-61
2021/11/05 03:11:14;;;;;;;7.60;3.30;;;;;;;4.98;75.68;99694.16;4975031;28;20058;-62
2021/11/05 03:13:45;;;;;;;3.90;2.30;;;;;;;5.04;76.10;99701.03;4974960;28;20051;-62
2021/11/05 03:16:17;;;;;;;6.43;3.10;;;;;;;5.02;75.56;99700.09;4975021;28;20051;-61
2021/11/05 03:18:46;;;;;;;5.78;2.67;;;;;;;5.02;76.00;99703.50;4974987;28;20545;-61
2021/11/05 03:21:19;;;;;;;4.13;2.03;;;;;;;5.08;75.90;99703.66;4974892;28;20042;-61
2021/11/05 03:23:50;;;;;;;4.00;2.35;;;;;;;4.99;75.54;99698.38;4974786;28;20051;-61
2021/11/05 03:26:23;;;;;;;4.68;2.60;;;;;;;5.05;75.49;99703.56;4974877;28;20054;-62
2021/11/05 03:28:56;;;;;;;6.75;2.85;;;;;;;4.98;75.69;99718.56;4974807;28;20097;-62
2021/11/05 03:31:28;;;;;;;5.47;2.60;;;;;;;4.90;75.40;99727.66;4974815;28;20134;-61
2021/11/05 03:33:58;;;;;;;4.60;2.35;;;;;;;4.89;75.74;99736.94;4973922;28;20050;-62
2021/11/05 03:36:30;;;;;;;4.22;2.42;;;;;;;4.81;75.73;99733.38;4974721;28;20129;-62
2021/11/05 03:39:02;;;;;;;4.85;2.65;;;;;;;4.67;76.35;99730.53;4974766;28;20050;-62
2021/11/05 03:41:34;;;;;;;4.53;2.10;;;;;;;4.62;76.00;99726.19;4974727;28;20047;-62
2021/11/05 03:44:04;;;;;;;4.20;2.30;;;;;;;4.60;76.19;99728.69;4974876;28;20051;-62
2021/11/05 03:46:37;;;;;;;5.38;2.53;;;;;;;4.68;76.44;99726.31;4974614;28;20050;-62
2021/11/05 03:49:07;;;;;;;4.50;2.55;;;;;;;4.73;76.55;99729.81;4974950;28;20559;-61
2021/11/05 03:51:39;;;;;;;4.22;2.40;;;;;;;4.81;76.60;99730.84;4974919;28;20054;-61
2021/11/05 03:54:10;;;;;;;5.05;2.38;;;;;;;4.89;76.07;99739.47;4974595;28;20076;-62
2021/11/05 03:56:43;;;;;;;4.53;2.60;;;;;;;4.95;76.28;99738.72;4974572;28;20133;-61
2021/11/05 03:59:12;;;;;;;4.72;2.58;;;;;;;4.97;76.23;99734.56;4974819;28;20500;-62
2021/11/05 04:01:44;;;;;;;4.50;2.72;;;;;;;4.98;76.20;99731.22;4974485;28;20105;-62
2021/11/05 04:04:13;;;;;;;4.30;2.38;;;;;;;4.93;76.08;99732.78;4978215;28;20039;-62
2021/11/05 04:06:46;;;;;;;2.92;1.88;;;;;;;4.87;75.93;99723.38;4978352;28;20050;-62
2021/11/05 04:09:19;;;;;;;3.97;1.95;;;;;;;4.73;75.72;99722.22;4978632;28;20094;-62
2021/11/05 04:11:52;;;;;;;3.75;2.15;;;;;;;4.68;75.34;99729.69;4978574;28;20389;-62
2021/11/05 04:14:21;;;;;;;4.47;2.20;;;;;;;4.52;75.93;99701.50;4978184;28;20077;-62
2021/11/05 04:16:56;;;;;;;4.85;1.95;;;;;;;4.48;75.26;99727.53;4978460;28;20448;-61
2021/11/05 04:19:28;;;;;;;3.22;1.92;;;;;;;4.44;75.77;99725.75;4978205;28;20134;-61
2021/11/05 04:22:00;;;;;;;3.63;2.15;;;;;;;4.52;75.39;99730.16;4978137;28;20046;-61
2021/11/05 04:24:31;;;;;;;3.47;2.05;;;;;;;4.54;75.78;99732.72;4978221;28;20101;-62
2021/11/05 04:27:15;;;;;;;5.03;2.40;;;;;;;4.69;75.15;99728.03;4978045;28;20046;-62
2021/11/05 04:29:48;;;;;;;5.05;2.40;;;;;;;4.49;75.24;99709.88;4899823;29;20131;-61
2021/11/05 04:32:20;;;;;;;4.70;2.28;;;;;;;4.57;75.39;99737.84;4899372;29;20059;-62
2021/11/05 04:34:49;;;;;;;4.78;2.80;;;;;;;4.39;75.22;99732.38;4899651;29;20045;-62
2021/11/05 04:37:21;;;;;;;5.63;2.72;;;;;;;4.31;75.13;99728.78;4899453;29;20515;-62
2021/11/05 04:39:58;;;;;;;6.57;3.08;;;;;;;4.22;74.97;99733.63;4899823;29;20108;-61
2021/11/05 04:42:30;;;;;;;3.80;2.38;;;;;;;3.97;76.01;99738.03;4899409;29;20063;-62
2021/11/05 04:45:00;;;;;;;3.95;2.28;;;;;;;3.92;75.96;99754.72;4899231;29;20041;-62
2021/11/05 04:47:35;;;;;;;4.85;2.30;;;;;;;4.03;75.53;99763.44;4899611;29;20138;-62
2021/11/05 04:50:09;;;;;;;4.25;2.25;;;;;;;4.05;76.15;99759.25;4899843;29;20052;-62
2021/11/05 04:52:47;;;;;;;5.15;2.30;;;;;;;4.02;75.80;99746.59;4899249;29;20475;-62
2021/11/05 04:55:20;;;;;;;4.28;2.10;;;;;;;3.81;76.04;99745.16;4899369;29;20052;-62
2021/11/05 04:57:53;;;;;;;4.38;2.42;;;;;;;3.77;76.35;99749.25;4899185;29;20115;-62
2021/11/05 05:00:29;;;;;;;7.55;3.35;;;;;;;3.77;76.13;99761.00;4899088;29;20049;-61
2021/11/05 05:03:01;;;;;;;21.25;7.95;;;;;;;3.79;76.95;99762.78;4899086;29;20063;-61
2021/11/05 05:05:30;;;;;;;19.75;8.65;;;;;;;3.81;77.09;99761.16;4898945;29;20052;-62
2021/11/05 05:08:03;;;;;;;28.38;9.82;;;;;;;3.78;77.25;99755.16;4950704;29;20055;-61
2021/11/05 05:10:37;;;;;;;22.67;9.13;;;;;;;3.87;77.07;99756.28;4957906;28;20082;-62
2021/11/05 05:13:10;;;;;;;16.65;6.95;;;;;;;3.98;77.07;99749.81;4957587;28;20055;-61
2021/11/05 05:15:42;;;;;;;20.77;7.80;;;;;;;4.08;77.00;99741.69;4957404;28;20470;-61
2021/11/05 05:18:15;;;;;;;14.02;6.75;;;;;;;4.20;76.94;99745.34;4957799;28;20110;-62
2021/11/05 05:20:49;;;;;;;16.75;6.63;;;;;;;4.02;76.12;99746.59;4957689;28;20043;-62
2021/11/05 05:23:19;;;;;;;11.70;5.03;;;;;;;3.98;76.16;99749.81;4958304;28;20045;-62
2021/11/05 05:25:52;;;;;;;7.85;3.63;;;;;;;3.90;76.30;99756.34;4957748;28;20078;-61
2021/11/05 05:28:25;;;;;;;7.78;3.80;;;;;;;3.79;76.49;99764.47;4957662;28;20055;-62
2021/11/05 05:30:57;;;;;;;6.10;3.25;;;;;;;3.65;76.50;99771.63;4957554;28;20065;-62
2021/11/05 05:33:30;;;;;;;6.50;3.25;;;;;;;3.47;77.08;99763.56;4967806;28;20050;-61
2021/11/05 05:36:02;;;;;;;6.72;2.85;;;;;;;3.44;76.79;99778.59;4977069;28;20525;-62
2021/11/05 05:38:35;;;;;;;7.18;3.22;;;;;;;3.57;77.38;99785.72;4976738;28;20493;-62
2021/11/05 05:41:09;;;;;;;6.93;3.30;;;;;;;3.82;77.02;99798.19;4976618;28;20058;-62
2021/11/05 05:43:44;;;;;;;6.50;3.00;;;;;;;3.80;76.95;99796.44;4976586;28;20548;-61
2021/11/05 05:46:16;;;;;;;5.18;2.85;;;;;;;3.78;76.96;99798.94;4976538;28;20061;-62
2021/11/05 05:48:49;;;;;;;5.05;2.78;;;;;;;3.79;76.44;99788.00;4976783;28;20466;-61
2021/11/05 05:51:21;;;;;;;5.18;2.70;;;;;;;3.84;76.30;99804.13;4976374;28;20046;-62
2021/11/05 05:53:51;;;;;;;5.70;3.20;;;;;;;3.83;76.08;99799.06;4976776;28;20133;-61
2021/11/05 05:56:25;;;;;;;8.85;4.05;;;;;;;3.93;76.63;99806.94;4976343;28;20171;-62
2021/11/05 05:58:54;;;;;;;8.07;3.53;;;;;;;3.96;76.42;99817.09;4976614;28;20055;-61
2021/11/05 06:01:24;;;;;;;6.32;3.80;;;;;;;4.12;76.53;99815.00;4976173;28;20062;-62
2021/11/05 06:03:53;;;;;;;7.72;3.67;;;;;;;4.24;77.23;99821.25;4976382;28;20409;-62
2021/11/05 06:06:23;;;;;;;5.38;3.53;;;;;;;4.32;77.12;99811.34;4976351;28;20437;-62
2021/11/05 06:08:52;;;;;;;5.78;3.38;;;;;;;4.39;76.85;99828.38;4976119;28;20125;-62
2021/11/05 06:11:25;;;;;;;6.53;3.33;;;;;;;4.42;76.83;99820.84;4976023;28;20073;-62
2021/11/05 06:13:55;;;;;;;6.80;3.50;;;;;;;4.42;77.25;99834.34;4976030;28;20371;-62
2021/11/05 06:16:30;;;;;;;9.07;4.30;;;;;;;4.56;77.67;99842.25;4975956;28;20137;-62
2021/11/05 06:19:00;;;;;;;7.88;4.20;;;;;;;4.68;77.24;99842.56;4975912;28;20102;-62
2021/11/05 06:21:31;;;;;;;;;;;;;;;4.70;77.47;99840.97;4976756;28;20133;-62
2021/11/05 06:24:01;;;;;;;5.35;3.40;;;;;;;4.84;77.18;99854.81;4976178;28;19930;-62
2021/11/05 06:26:35;;;;;;;6.82;3.60;;;;;;;4.92;77.17;99848.25;4975328;28;20075;-61
2021/11/05 06:29:05;;;;;;;7.90;3.90;;;;;;;4.85;76.46;99851.44;4975665;28;20046;-61
2021/11/05 06:31:34;;;;;;;7.85;3.78;;;;;;;4.90;77.36;99857.47;4976239;28;20046;-62
2021/11/05 06:34:05;;;;;;;7.40;3.75;;;;;;;5.07;76.96;99858.72;4975371;28;20063;-61
2021/11/05 06:36:37;;;;;;;7.43;3.97;;;;;;;5.04;77.18;99848.53;4975584;28;20134;-62
2021/11/05 06:39:20;;;;;;;8.23;4.53;;;;;;;5.30;76.77;99870.25;4975593;28;20047;-62
2021/11/05 06:41:51;;;;;;;9.40;4.07;;;;;;;5.37;76.81;99873.78;4975501;28;20043;-62
2021/11/05 06:44:20;;;;;;;7.00;3.72;;;;;;;5.47;76.53;99877.38;4975492;28;20046;-63
2021/11/05 06:46:50;;;;;;;6.72;4.43;;;;;;;5.55;76.37;99873.31;4975488;28;20043;-62
2021/11/05 06:49:19;;;;;;;7.30;4.40;;;;;;;5.57;76.16;99871.69;4975289;28;20073;-62
2021/11/05 06:51:53;;;;;;;7.95;3.90;;;;;;;5.65;76.10;99882.84;4975348;28;20051;-61
2021/11/05 06:54:24;;;;;;;7.35;4.15;;;;;;;5.73;76.13;99888.94;4975273;28;20492;-62
2021/11/05 06:56:57;;;;;;;7.85;4.18;;;;;;;5.74;76.34;99881.38;4975296;28;20047;-61
2021/11/05 06:59:30;;;;;;;6.57;4.13;;;;;;;5.88;76.23;99884.22;4975510;28;20038;-62
2021/11/05 07:02:03;;;;;;;9.02;4.32;;;;;;;5.86;76.36;99875.72;4975054;28;20047;-62
2021/11/05 07:04:40;;;;;;;9.27;4.47;;;;;;;5.93;76.40;99887.69;4975102;28;20460;-62
2021/11/05 07:07:13;;;;;;;7.38;4.10;;;;;;;5.96;76.05;99890.31;4975009;28;20046;-62
2021/11/05 07:09:43;;;;;;;7.20;3.90;;;;;;;6.00;75.73;99904.72;4975030;28;20054;-63
2021/11/05 07:12:17;;;;;;;6.38;3.25;;;;;;;6.02;76.11;99903.13;4975201;28;20047;-63
2021/11/05 07:14:49;;;;;;;6.45;3.70;;;;;;;6.02;76.09;99908.19;4974932;28;20133;-61
2021/11/05 07:17:19;;;;;;;6.45;3.03;;;;;;;5.93;75.60;99898.69;4975259;28;20073;-62
2021/11/05 07:19:52;;;;;;;6.07;3.45;;;;;;;6.05;75.88;99923.41;4975102;28;20532;-62
2021/11/05 07:22:25;;;;;;;7.07;3.28;;;;;;;6.13;75.65;99926.97;4975211;28;20074;-62
2021/11/05 07:24:57;;;;;;;7.78;3.50;;;;;;;6.14;75.73;99918.56;4974893;28;20174;-62
2021/11/05 07:27:31;;;;;;;7.97;3.72;;;;;;;6.19;75.57;99924.56;4974706;28;20043;-62
2021/11/05 07:30:00;;;;;;;7.78;3.67;;;;;;;6.21;75.66;99935.59;4975044;28;20552;-62
2021/11/05 07:32:30;;;;;;;6.43;3.55;;;;;;;6.32;75.78;99936.66;4973988;28;20055;-63
2021/11/05 07:35:02;;;;;;;6.25;3.97;;;;;;;6.44;75.81;99939.44;4974782;28;20068;-63
2021/11/05 07:37:34;;;;;;;12.10;4.25;;;;;;;6.50;75.77;99944.63;4973977;28;20163;-62
2021/11/05 07:40:08;;;;;;;6.10;3.92;;;;;;;6.55;75.56;99947.28;4974686;28;20125;-62
2021/11/05 07:42:40;;;;;;;8.10;3.88;;;;;;;6.59;75.66;99959.19;4974715;28;20057;-62
2021/11/05 07:45:15;;;;;;;10.40;3.42;;;;;;;6.49;74.97;99968.28;4974663;28;20065;-62
2021/11/05 07:47:53;;;;;;;6.30;3.33;;;;;;;6.27;75.26;99971.19;4974531;28;20042;-61
2021/11/05 07:50:32;;;;;;;10.45;4.03;;;;;;;6.31;75.63;99978.03;4974638;28;20050;-62
2021/11/05 07:53:06;;;;;;;;;;;;;;;6.56;76.20;99985.34;4975013;28;20054;-62
2021/11/05 07:55:38;;;;;;;7.38;3.72;;;;;;;6.72;75.75;99982.25;4974516;28;20295;-62
2021/11/05 07:58:10;;;;;;;7.57;4.10;;;;;;;6.84;75.60;99990.94;4974457;28;20042;-62
2021/11/05 08:00:39;;;;;;;8.35;4.53;;;;;;;6.91;75.58;99992.78;4974111;28;20137;-64
2021/11/05 08:03:10;;;;;;;6.30;3.65;;;;;;;7.03;75.13;99995.53;4974374;28;20047;-62
2021/11/05 08:05:39;;;;;;;7.30;3.72;;;;;;;6.99;74.69;99998.81;4974154;28;20054;-62
2021/11/05 08:08:12;;;;;;;8.23;3.88;;;;;;;6.96;74.78;100001.34;4974026;28;20138;-62
2021/11/05 08:10:44;;;;;;;7.07;3.53;;;;;;;7.03;74.52;99998.06;4974311;28;20078;-62
2021/11/05 08:13:15;;;;;;;6.93;3.95;;;;;;;7.17;74.53;100002.59;4974369;28;20050;-62
2021/11/05 08:15:44;;;;;;;7.07;3.67;;;;;;;7.09;74.12;99967.72;4974430;28;20055;-62
2021/11/05 08:18:17;;;;;;;5.78;3.50;;;;;;;7.22;74.20;99993.34;4974275;28;20496;-62
2021/11/05 08:20:49;;;;;;;8.20;4.05;;;;;;;7.28;73.93;99990.06;4974557;28;20083;-62
2021/11/05 08:23:21;;;;;;;5.65;3.00;;;;;;;7.30;74.06;99998.56;4974286;28;20047;-62
2021/11/05 08:25:53;;;;;;;7.30;3.67;;;;;;;7.49;73.95;100005.66;4974612;28;20055;-62
2021/11/05 08:28:25;;;;;;;7.50;3.08;;;;;;;7.62;74.13;99988.94;4974172;28;20050;-62
2021/11/05 08:30:56;;;;;;;6.30;3.08;;;;;;;7.56;73.46;99956.66;4974293;28;20133;-62
2021/11/05 08:33:25;;;;;;;7.05;3.50;;;;;;;7.98;73.23;100003.06;4973954;28;20062;-62
2021/11/05 08:35:58;;;;;;;5.43;2.90;;;;;;;8.21;72.73;100011.00;4974402;28;20078;-62
2021/11/05 08:38:27;;;;;;;5.63;3.08;;;;;;;8.37;72.43;100014.66;4974143;28;20043;-62
2021/11/05 08:40:56;;;;;;;8.20;3.38;;;;;;;8.25;72.72;100022.94;4974167;28;20047;-62
2021/11/05 08:43:31;;;;;;;5.82;3.13;;;;;;;8.17;71.37;100023.66;4973778;28;20077;-63
2021/11/05 08:46:06;;;;;;;6.25;2.85;;;;;;;8.11;71.34;100022.72;4974230;28;20050;-63
2021/11/05 08:48:40;;;;;;;5.07;3.05;;;;;;;8.19;72.21;100012.66;4975037;28;20138;-63
2021/11/05 08:51:11;;;;;;;5.47;3.20;;;;;;;8.38;71.78;100023.97;4977675;28;20134;-62
2021/11/05 08:53:41;;;;;;;6.07;3.03;;;;;;;8.17;71.74;100021.09;4977427;28;20489;-62
2021/11/05 08:56:11;;;;;;;4.50;2.90;;;;;;;8.16;71.18;100016.88;4977329;28;20390;-62
2021/11/05 08:58:43;;;;;;;6.93;3.20;;;;;;;8.34;71.61;100017.16;4977284;28;20055;-63
2021/11/05 09:01:13;;;;;;;8.23;3.50;;;;;;;8.69;71.42;100026.06;4977176;28;20053;-62
2021/11/05 09:03:43;;;;;;;5.78;3.53;;;;;;;8.81;71.54;100018.59;4977241;28;20047;-62
2021/11/05 09:06:13;;;;;;;6.65;3.55;;;;;;;8.86;70.61;100018.66;4977326;28;20057;-62
2021/11/05 09:08:43;;;;;;;7.45;3.75;;;;;;;8.96;70.46;100023.88;4976879;28;20043;-62
2021/11/05 09:11:13;;;;;;;5.38;3.50;;;;;;;8.89;70.65;100016.13;4977113;28;20101;-62
2021/11/05 09:13:47;;;;;;;6.90;3.55;;;;;;;9.18;70.41;100033.44;4977090;28;20507;-62
2021/11/05 09:16:19;;;;;;;7.18;3.50;;;;;;;9.24;69.75;100013.13;4977148;28;20133;-62
2021/11/05 09:18:49;;;;;;;5.32;3.03;;;;;;;9.42;70.03;100038.78;4977322;28;20129;-62
2021/11/05 09:21:18;;;;;;;6.35;3.42;;;;;;;9.26;68.84;100015.72;4976718;28;20145;-62
2021/11/05 09:23:50;;;;;;;5.38;3.00;;;;;;;9.15;69.55;100022.38;4976834;28;20043;-62
2021/11/05 09:26:21;;;;;;;5.28;3.38;;;;;;;9.23;69.47;100036.91;4977101;28;20054;-62
2021/11/05 09:28:56;;;;;;;5.85;2.90;;;;;;;9.19;68.96;100036.84;4976870;28;20038;-62
2021/11/05 09:31:29;;;;;;;5.60;3.28;;;;;;;9.20;69.99;100041.97;4976823;28;20085;-62
2021/11/05 09:34:01;;;;;;;4.47;2.92;;;;;;;9.24;70.06;100033.50;4976684;28;20555;-62
2021/11/05 09:36:34;;;;;;;7.10;2.92;;;;;;;9.25;69.19;100034.38;4976694;28;20053;-62
2021/11/05 09:39:04;;;;;;;5.40;3.40;;;;;;;9.25;68.96;100049.63;4976880;28;20204;-62
2021/11/05 09:41:33;;;;;;;5.78;3.50;;;;;;;9.28;69.06;100050.53;4976626;28;20051;-62
2021/11/05 09:44:05;;;;;;;12.40;6.88;;;;;;;9.22;68.85;100045.38;4976536;28;20057;-62
2021/11/05 09:46:38;;;;;;;13.30;7.78;;;;;;;8.96;69.74;100036.59;4976567;28;20081;-62
2021/11/05 09:49:10;;;;;;;12.18;5.93;;;;;;;8.79;69.89;100053.34;4976407;28;20051;-62
2021/11/05 09:51:43;;;;;;;13.43;6.35;;;;;;;8.56;71.31;100037.81;4976438;28;20061;-62
2021/11/05 09:54:18;;;;;;;9.48;5.18;;;;;;;8.63;71.52;100059.09;4976073;28;20093;-62
2021/11/05 09:56:48;;;;;;;7.45;4.45;;;;;;;8.73;71.40;100078.75;4976603;28;20430;-62
2021/11/05 09:59:19;;;;;;;8.57;4.97;;;;;;;8.68;71.15;100065.09;4976384;28;20401;-62
2021/11/05 10:01:53;;;;;;;10.05;5.68;;;;;;;8.70;71.81;100058.34;4975691;28;20046;-62
2021/11/05 10:04:23;;;;;;;9.82;5.22;;;;;;;8.86;71.51;100060.22;4976391;28;20393;-62
2021/11/05 10:07:01;;;;;;;10.02;5.70;;;;;;;8.99;71.28;100067.19;4975849;28;20054;-62
2021/11/05 10:09:39;;;;;;;9.35;5.53;;;;;;;9.18;70.93;100074.19;4975963;28;20556;-62
2021/11/05 10:12:12;;;;;;;10.65;5.55;;;;;;;8.93;71.77;100084.06;4975856;28;20138;-62
2021/11/05 10:14:44;;;;;;;9.48;5.18;;;;;;;8.70;71.62;100091.41;4975817;28;20053;-62
2021/11/05 10:17:15;;;;;;;8.52;5.22;;;;;;;8.74;72.40;100085.53;4976193;28;20528;-62
2021/11/05 10:19:49;;;;;;;9.50;4.85;;;;;;;8.81;71.46;100091.53;4975923;28;20500;-62
2021/11/05 10:22:49;;;;;;;10.80;5.18;;;;;;;8.94;72.60;100094.28;4976095;28;20556;-62
2021/11/05 10:25:22;;;;;;;7.95;5.15;;;;;;;9.33;72.37;100102.34;4976109;28;20057;-62
2021/11/05 10:28:12;;;;;;;8.48;4.50;;;;;;;9.80;70.88;100095.19;4975397;28;20050;-62
2021/11/05 10:30:57;;;;;;;9.05;4.40;;;;;;;10.24;69.89;100070.09;4975610;28;20051;-62
2021/11/05 10:33:35;;;;;;;6.75;4.35;;;;;;;10.55;68.91;100072.00;4975657;28;20065;-62
2021/11/05 10:36:10;;;;;;;9.70;3.92;;;;;;;10.74;67.96;100068.69;4975913;28;20050;-62
2021/11/05 10:38:43;;;;;;;8.00;4.28;;;;;;;10.92;66.83;100075.53;4975404;28;20062;-62
2021/11/05 10:41:18;;;;;;;7.30;3.90;;;;;;;11.12;66.06;100071.38;4975403;28;20437;-62
2021/11/05 10:43:52;;;;;;;5.93;3.65;;;;;;;11.51;65.24;100070.63;4975368;28;20046;-62
2021/11/05 10:46:30;;;;;;;7.35;4.18;;;;;;;11.85;64.04;100080.06;4975641;28;20451;-62
2021/11/05 10:49:04;;;;;;;6.45;3.40;;;;;;;11.97;63.83;100076.66;4975609;28;20500;-62
2021/11/05 10:51:37;;;;;;;7.18;3.72;;;;;;;12.30;63.16;100073.22;4975301;28;20078;-62
2021/11/05 10:54:07;;;;;;;8.23;4.38;;;;;;;12.05;62.81;100065.56;4975267;28;20070;-62
2021/11/05 10:56:38;;;;;;;6.72;4.13;;;;;;;12.33;62.68;100065.56;4975095;28;20126;-62
2021/11/05 10:59:12;;;;;;;5.18;3.17;;;;;;;12.41;61.39;100054.44;4975399;28;20496;-62
2021/11/05 11:01:46;;;;;;;5.32;3.08;;;;;;;12.65;60.77;100053.50;4968859;28;20039;-63
2021/11/05 11:04:16;;;;;;;4.22;2.78;;;;;;;12.67;59.89;100046.66;4967358;28;20505;-63
2021/11/05 11:06:47;;;;;;;4.60;2.88;;;;;;;12.89;59.30;100043.19;4968152;28;20065;-63
2021/11/05 11:09:19;;;;;;;3.80;2.47;;;;;;;13.12;59.05;100045.69;4972078;28;20097;-62
2021/11/05 11:11:51;;;;;;;4.00;2.22;;;;;;;13.09;58.12;100038.84;4970618;28;20397;-63
2021/11/05 11:14:22;;;;;;;3.78;2.20;;;;;;;13.18;57.15;100030.25;4972609;28;20500;-62
2021/11/05 11:17:10;;;;;;;4.82;2.80;;;;;;;13.40;56.49;100036.97;4973457;28;20031;-62
2021/11/05 11:19:47;;;;;;;4.90;2.90;;;;;;;13.28;55.71;100027.63;4914274;29;20107;-63
2021/11/05 11:22:18;;;;;;;4.25;2.70;;;;;;;13.21;55.20;100031.09;4913017;29;20139;-62
2021/11/05 11:24:47;;;;;;;4.07;2.53;;;;;;;13.52;55.61;100030.88;4911213;29;20422;-62
2021/11/05 11:27:16;;;;;;;5.07;2.80;;;;;;;13.53;55.38;100024.91;4911099;29;20108;-63
2021/11/05 11:29:55;;;;;;;3.47;2.30;;;;;;;13.52;55.04;100030.88;4912041;29;20131;-62
2021/11/05 11:32:27;;;;;;;3.67;2.20;;;;;;;13.72;54.58;100034.16;4913710;29;20510;-63
2021/11/05 11:35:00;;;;;;;5.85;2.13;;;;;;;13.90;54.38;100034.00;4911691;29;20039;-63
2021/11/05 11:37:32;;;;;;;4.07;2.78;;;;;;;13.75;54.04;100034.97;4909258;29;20083;-63
2021/11/05 11:40:02;;;;;;;4.97;2.72;;;;;;;13.71;53.63;100045.28;4914785;29;20119;-62
2021/11/05 11:42:31;;;;;;;4.70;2.95;;;;;;;13.36;53.75;100051.50;4912220;29;20067;-62
2021/11/05 11:45:07;;;;;;;4.53;3.22;;;;;;;13.37;53.35;100053.22;4913168;29;20055;-62
2021/11/05 11:47:46;;;;;;;4.20;2.30;;;;;;;13.40;53.44;100058.31;4911298;29;20036;-62
2021/11/05 11:50:25;;;;;;;5.60;3.08;;;;;;;13.48;53.18;100055.72;4925938;28;20051;-63
2021/11/05 11:53:05;;;;;;;4.30;2.30;;;;;;;13.99;53.12;100042.47;4966885;28;20046;-63
2021/11/05 11:55:35;;;;;;;3.93;2.67;;;;;;;14.20;52.35;100044.00;4966518;28;20093;-61
2021/11/05 11:58:14;;;;;;;4.45;2.67;;;;;;;14.35;52.51;100048.19;4972404;28;20662;-62
2021/11/05 12:00:45;;;;;;;4.70;2.30;;;;;;;14.38;51.45;100043.84;4969635;28;20053;-62
2021/11/05 12:03:25;;;;;;;3.70;2.38;;;;;;;14.47;51.01;100054.03;4974297;28;20050;-62